sensor_id;sensor_type;location;lat;lon;timestamp;P1;durP1;ratioP1;P2;durP2;ratioP2
71566;SDS011;59403;47.456;19.120;2024-02-21T00:01:28;8.48;;;5.20;;
71566;SDS011;59403;47.456;19.120;2024-02-21T00:03:55;6.57;;;5.30;;
71566;SDS011;59403;47.456;19.120;2024-02-21T00:06:21;7.18;;;5.05;;
71566;SDS011;59403;47.456;19.120;2024-02-21T00:08:48;7.40;;;4.70;;
71566;SDS011;59403;47.456;19.120;2024-02-21T00:11:16;6.75;;;4.53;;
71566;SDS011;59403;47.456;19.120;2024-02-21T00:13:43;4.28;;;3.37;;
71566;SDS011;59403;47.456;19.120;2024-02-21T00:16:09;5.72;;;3.40;;
71566;SDS011;59403;47.456;19.120;2024-02-21T00:18:36;7.05;;;3.35;;
71566;SDS011;59403;47.456;19.120;2024-02-21T00:21:03;6.63;;;3.57;;
71566;SDS011;59403;47.456;19.120;2024-02-21T00:23:30;4.70;;;3.45;;
71566;SDS011;59403;47.456;19.120;2024-02-21T00:25:56;5.22;;;3.28;;
71566;SDS011;59403;47.456;19.120;2024-02-21T00:28:24;5.15;;;3.08;;
71566;SDS011;59403;47.456;19.120;2024-02-21T00:30:51;4.18;;;3.03;;
71566;SDS011;59403;47.456;19.120;2024-02-21T00:33:18;5.50;;;3.00;;
71566;SDS011;59403;47.456;19.120;2024-02-21T00:35:45;4.72;;;2.87;;
71566;SDS011;59403;47.456;19.120;2024-02-21T00:38:12;4.65;;;2.92;;
71566;SDS011;59403;47.456;19.120;2024-02-21T00:40:38;5.60;;;2.85;;
71566;SDS011;59403;47.456;19.120;2024-02-21T00:43:05;5.30;;;2.45;;
71566;SDS011;59403;47.456;19.120;2024-02-21T00:45:33;4.13;;;2.40;;
71566;SDS011;59403;47.456;19.120;2024-02-21T00:47:59;5.55;;;2.70;;
71566;SDS011;59403;47.456;19.120;2024-02-21T00:50:26;3.83;;;2.70;;
71566;SDS011;59403;47.456;19.120;2024-02-21T00:52:52;6.00;;;2.40;;
71566;SDS011;59403;47.456;19.120;2024-02-21T00:55:19;6.45;;;2.17;;
71566;SDS011;59403;47.456;19.120;2024-02-21T00:57:45;4.73;;;2.40;;
71566;SDS011;59403;47.456;19.120;2024-02-21T01:00:12;6.43;;;2.40;;
71566;SDS011;59403;47.456;19.120;2024-02-21T01:02:41;3.83;;;2.40;;
71566;SDS011;59403;47.456;19.120;2024-02-21T01:05:07;4.75;;;2.47;;
71566;SDS011;59403;47.456;19.120;2024-02-21T01:07:34;4.47;;;2.22;;
71566;SDS011;59403;47.456;19.120;2024-02-21T01:10:01;4.93;;;2.53;;
71566;SDS011;59403;47.456;19.120;2024-02-21T01:12:27;3.83;;;1.70;;
71566;SDS011;59403;47.456;19.120;2024-02-21T01:14:54;4.57;;;2.40;;
71566;SDS011;59403;47.456;19.120;2024-02-21T01:17:21;3.67;;;2.00;;
71566;SDS011;59403;47.456;19.120;2024-02-21T01:19:49;5.62;;;2.12;;
71566;SDS011;59403;47.456;19.120;2024-02-21T01:22:15;5.97;;;2.47;;
71566;SDS011;59403;47.456;19.120;2024-02-21T01:24:42;3.55;;;2.12;;
71566;SDS011;59403;47.456;19.120;2024-02-21T01:27:09;4.30;;;2.00;;
71566;SDS011;59403;47.456;19.120;2024-02-21T01:29:36;3.95;;;1.87;;
71566;SDS011;59403;47.456;19.120;2024-02-21T01:32:02;3.92;;;1.90;;
71566;SDS011;59403;47.456;19.120;2024-02-21T01:34:29;3.77;;;1.37;;
71566;SDS011;59403;47.456;19.120;2024-02-21T01:36:57;2.47;;;1.48;;
71566;SDS011;59403;47.456;19.120;2024-02-21T01:39:24;3.20;;;1.35;;
71566;SDS011;59403;47.456;19.120;2024-02-21T01:41:50;3.05;;;1.40;;
71566;SDS011;59403;47.456;19.120;2024-02-21T01:44:17;2.97;;;1.20;;
71566;SDS011;59403;47.456;19.120;2024-02-21T01:46:44;3.33;;;1.43;;
71566;SDS011;59403;47.456;19.120;2024-02-21T01:49:10;4.75;;;1.40;;
71566;SDS011;59403;47.456;19.120;2024-02-21T01:51:37;4.47;;;1.33;;
71566;SDS011;59403;47.456;19.120;2024-02-21T01:54:06;3.17;;;1.25;;
71566;SDS011;59403;47.456;19.120;2024-02-21T01:56:33;3.35;;;1.20;;
71566;SDS011;59403;47.456;19.120;2024-02-21T01:58:59;4.47;;;1.40;;
71566;SDS011;59403;47.456;19.120;2024-02-21T02:04:01;3.33;;;1.45;;
71566;SDS011;59403;47.456;19.120;2024-02-21T02:06:30;5.43;;;1.90;;
71566;SDS011;59403;47.456;19.120;2024-02-21T02:08:57;5.32;;;1.60;;
71566;SDS011;59403;47.456;19.120;2024-02-21T02:11:27;3.50;;;1.80;;
71566;SDS011;59403;47.456;19.120;2024-02-21T02:13:54;2.95;;;1.70;;
71566;SDS011;59403;47.456;19.120;2024-02-21T02:16:21;5.60;;;1.77;;
71566;SDS011;59403;47.456;19.120;2024-02-21T02:18:47;4.12;;;1.80;;
71566;SDS011;59403;47.456;19.120;2024-02-21T02:21:16;3.72;;;1.75;;
71566;SDS011;59403;47.456;19.120;2024-02-21T02:23:54;4.87;;;2.10;;
71566;SDS011;59403;47.456;19.120;2024-02-21T02:26:22;4.25;;;1.80;;
71566;SDS011;59403;47.456;19.120;2024-02-21T02:28:48;4.65;;;2.00;;
71566;SDS011;59403;47.456;19.120;2024-02-21T02:31:15;4.20;;;2.10;;
71566;SDS011;59403;47.456;19.120;2024-02-21T02:33:42;3.85;;;1.90;;
71566;SDS011;59403;47.456;19.120;2024-02-21T02:36:09;6.20;;;2.23;;
71566;SDS011;59403;47.456;19.120;2024-02-21T02:38:36;5.07;;;2.12;;
71566;SDS011;59403;47.456;19.120;2024-02-21T02:41:04;8.95;;;2.60;;
71566;SDS011;59403;47.456;19.120;2024-02-21T02:43:31;4.22;;;1.92;;
71566;SDS011;59403;47.456;19.120;2024-02-21T02:45:58;5.85;;;2.58;;
71566;SDS011;59403;47.456;19.120;2024-02-21T02:48:25;7.60;;;2.70;;
71566;SDS011;59403;47.456;19.120;2024-02-21T02:50:51;7.30;;;2.50;;
71566;SDS011;59403;47.456;19.120;2024-02-21T02:53:18;5.05;;;2.60;;
71566;SDS011;59403;47.456;19.120;2024-02-21T02:55:45;4.82;;;2.33;;
71566;SDS011;59403;47.456;19.120;2024-02-21T02:58:13;5.93;;;2.40;;
71566;SDS011;59403;47.456;19.120;2024-02-21T03:00:39;6.23;;;2.30;;
71566;SDS011;59403;47.456;19.120;2024-02-21T03:03:06;4.97;;;2.42;;
71566;SDS011;59403;47.456;19.120;2024-02-21T03:05:33;5.05;;;2.20;;
71566;SDS011;59403;47.456;19.120;2024-02-21T03:08:00;5.72;;;2.50;;
71566;SDS011;59403;47.456;19.120;2024-02-21T03:10:27;5.75;;;1.87;;
71566;SDS011;59403;47.456;19.120;2024-02-21T03:12:54;6.47;;;3.37;;
71566;SDS011;59403;47.456;19.120;2024-02-21T03:15:22;6.47;;;2.78;;
71566;SDS011;59403;47.456;19.120;2024-02-21T03:17:49;5.22;;;2.40;;
71566;SDS011;59403;47.456;19.120;2024-02-21T03:20:15;6.30;;;2.45;;
71566;SDS011;59403;47.456;19.120;2024-02-21T03:22:43;7.97;;;2.92;;
71566;SDS011;59403;47.456;19.120;2024-02-21T03:25:10;7.67;;;2.40;;
71566;SDS011;59403;47.456;19.120;2024-02-21T03:27:37;6.03;;;2.70;;
71566;SDS011;59403;47.456;19.120;2024-02-21T03:30:04;5.85;;;2.30;;
71566;SDS011;59403;47.456;19.120;2024-02-21T03:32:33;5.72;;;2.80;;
71566;SDS011;59403;47.456;19.120;2024-02-21T03:35:00;5.70;;;2.62;;
71566;SDS011;59403;47.456;19.120;2024-02-21T03:37:26;5.23;;;2.27;;
71566;SDS011;59403;47.456;19.120;2024-02-21T03:39:53;6.05;;;2.37;;
71566;SDS011;59403;47.456;19.120;2024-02-21T03:42:20;5.30;;;2.22;;
71566;SDS011;59403;47.456;19.120;2024-02-21T03:44:47;8.10;;;2.30;;
71566;SDS011;59403;47.456;19.120;2024-02-21T03:47:13;5.65;;;2.30;;
71566;SDS011;59403;47.456;19.120;2024-02-21T03:49:42;7.80;;;2.10;;
71566;SDS011;59403;47.456;19.120;2024-02-21T03:52:08;8.88;;;3.47;;
71566;SDS011;59403;47.456;19.120;2024-02-21T03:54:35;5.50;;;2.30;;
71566;SDS011;59403;47.456;19.120;2024-02-21T03:57:02;5.18;;;2.33;;
71566;SDS011;59403;47.456;19.120;2024-02-21T03:59:31;6.53;;;2.95;;
71566;SDS011;59403;47.456;19.120;2024-02-21T04:01:57;9.53;;;3.60;;
71566;SDS011;59403;47.456;19.120;2024-02-21T04:04:24;11.12;;;4.12;;
71566;SDS011;59403;47.456;19.120;2024-02-21T04:06:52;10.82;;;5.70;;
71566;SDS011;59403;47.456;19.120;2024-02-21T04:09:18;10.25;;;4.07;;
71566;SDS011;59403;47.456;19.120;2024-02-21T04:11:45;13.02;;;6.32;;
71566;SDS011;59403;47.456;19.120;2024-02-21T04:14:12;14.57;;;6.57;;
71566;SDS011;59403;47.456;19.120;2024-02-21T04:16:39;17.70;;;8.10;;
71566;SDS011;59403;47.456;19.120;2024-02-21T04:19:05;10.98;;;4.25;;
71566;SDS011;59403;47.456;19.120;2024-02-21T04:21:32;7.78;;;4.00;;
71566;SDS011;59403;47.456;19.120;2024-02-21T04:24:00;10.70;;;5.68;;
71566;SDS011;59403;47.456;19.120;2024-02-21T04:26:30;18.47;;;9.40;;
71566;SDS011;59403;47.456;19.120;2024-02-21T04:28:57;8.10;;;4.80;;
71566;SDS011;59403;47.456;19.120;2024-02-21T04:31:23;8.70;;;4.22;;
71566;SDS011;59403;47.456;19.120;2024-02-21T04:33:50;7.03;;;3.45;;
71566;SDS011;59403;47.456;19.120;2024-02-21T04:36:17;6.68;;;3.67;;
71566;SDS011;59403;47.456;19.120;2024-02-21T04:38:44;5.63;;;3.67;;
71566;SDS011;59403;47.456;19.120;2024-02-21T04:41:12;6.32;;;3.45;;
71566;SDS011;59403;47.456;19.120;2024-02-21T04:43:39;6.70;;;3.37;;
71566;SDS011;59403;47.456;19.120;2024-02-21T04:46:06;8.07;;;3.70;;
71566;SDS011;59403;47.456;19.120;2024-02-21T04:48:32;5.05;;;3.45;;
71566;SDS011;59403;47.456;19.120;2024-02-21T04:50:59;5.80;;;3.03;;
71566;SDS011;59403;47.456;19.120;2024-02-21T04:53:26;7.07;;;3.47;;
71566;SDS011;59403;47.456;19.120;2024-02-21T04:55:52;7.03;;;3.50;;
71566;SDS011;59403;47.456;19.120;2024-02-21T04:58:20;5.80;;;2.85;;
71566;SDS011;59403;47.456;19.120;2024-02-21T05:00:47;6.93;;;2.78;;
71566;SDS011;59403;47.456;19.120;2024-02-21T05:03:14;7.03;;;3.30;;
71566;SDS011;59403;47.456;19.120;2024-02-21T05:05:41;6.72;;;3.28;;
71566;SDS011;59403;47.456;19.120;2024-02-21T05:08:09;8.02;;;3.97;;
71566;SDS011;59403;47.456;19.120;2024-02-21T05:10:36;11.20;;;3.75;;
71566;SDS011;59403;47.456;19.120;2024-02-21T05:13:02;11.35;;;3.80;;
71566;SDS011;59403;47.456;19.120;2024-02-21T05:15:31;8.03;;;3.90;;
71566;SDS011;59403;47.456;19.120;2024-02-21T05:17:57;8.52;;;4.00;;
71566;SDS011;59403;47.456;19.120;2024-02-21T05:20:24;7.57;;;3.47;;
71566;SDS011;59403;47.456;19.120;2024-02-21T05:22:50;8.88;;;3.75;;
71566;SDS011;59403;47.456;19.120;2024-02-21T05:25:17;10.00;;;4.30;;
71566;SDS011;59403;47.456;19.120;2024-02-21T05:27:44;8.23;;;3.93;;
71566;SDS011;59403;47.456;19.120;2024-02-21T05:30:11;8.25;;;3.70;;
71566;SDS011;59403;47.456;19.120;2024-02-21T05:32:39;8.23;;;3.50;;
71566;SDS011;59403;47.456;19.120;2024-02-21T05:35:06;8.13;;;3.72;;
71566;SDS011;59403;47.456;19.120;2024-02-21T05:37:33;7.75;;;4.00;;
71566;SDS011;59403;47.456;19.120;2024-02-21T05:40:00;7.23;;;3.87;;
71566;SDS011;59403;47.456;19.120;2024-02-21T05:42:27;8.23;;;3.65;;
71566;SDS011;59403;47.456;19.120;2024-02-21T05:44:53;7.12;;;3.60;;
71566;SDS011;59403;47.456;19.120;2024-02-21T05:47:20;7.65;;;3.47;;
71566;SDS011;59403;47.456;19.120;2024-02-21T05:49:48;6.45;;;3.92;;
71566;SDS011;59403;47.456;19.120;2024-02-21T05:52:18;5.33;;;3.17;;
71566;SDS011;59403;47.456;19.120;2024-02-21T05:54:45;6.70;;;3.08;;
71566;SDS011;59403;47.456;19.120;2024-02-21T05:57:11;10.50;;;3.65;;
71566;SDS011;59403;47.456;19.120;2024-02-21T05:59:38;5.82;;;2.80;;
71566;SDS011;59403;47.456;19.120;2024-02-21T06:02:07;7.55;;;3.60;;
71566;SDS011;59403;47.456;19.120;2024-02-21T06:04:33;9.40;;;3.40;;
71566;SDS011;59403;47.456;19.120;2024-02-21T06:07:01;6.18;;;3.40;;
71566;SDS011;59403;47.456;19.120;2024-02-21T06:09:29;8.88;;;2.70;;
71566;SDS011;59403;47.456;19.120;2024-02-21T06:11:57;6.57;;;3.20;;
71566;SDS011;59403;47.456;19.120;2024-02-21T06:14:23;7.35;;;3.00;;
71566;SDS011;59403;47.456;19.120;2024-02-21T06:16:50;6.57;;;3.20;;
71566;SDS011;59403;47.456;19.120;2024-02-21T06:19:17;8.23;;;3.25;;
71566;SDS011;59403;47.456;19.120;2024-02-21T06:21:43;7.03;;;3.15;;
71566;SDS011;59403;47.456;19.120;2024-02-21T06:24:11;7.93;;;2.90;;
71566;SDS011;59403;47.456;19.120;2024-02-21T06:26:38;5.80;;;2.95;;
71566;SDS011;59403;47.456;19.120;2024-02-21T06:29:06;8.83;;;4.50;;
71566;SDS011;59403;47.456;19.120;2024-02-21T06:31:33;8.07;;;2.97;;
71566;SDS011;59403;47.456;19.120;2024-02-21T06:34:01;9.27;;;2.95;;
71566;SDS011;59403;47.456;19.120;2024-02-21T06:36:27;7.97;;;3.20;;
71566;SDS011;59403;47.456;19.120;2024-02-21T06:38:54;6.62;;;3.53;;
71566;SDS011;59403;47.456;19.120;2024-02-21T06:41:22;7.10;;;2.83;;
71566;SDS011;59403;47.456;19.120;2024-02-21T06:43:49;8.70;;;3.40;;
71566;SDS011;59403;47.456;19.120;2024-02-21T06:46:24;7.00;;;3.40;;
71566;SDS011;59403;47.456;19.120;2024-02-21T06:48:51;9.85;;;4.93;;
71566;SDS011;59403;47.456;19.120;2024-02-21T06:51:18;10.48;;;5.05;;
71566;SDS011;59403;47.456;19.120;2024-02-21T06:53:45;10.73;;;5.00;;
71566;SDS011;59403;47.456;19.120;2024-02-21T06:56:11;9.80;;;5.05;;
71566;SDS011;59403;47.456;19.120;2024-02-21T06:58:39;9.82;;;4.47;;
71566;SDS011;59403;47.456;19.120;2024-02-21T07:01:06;7.87;;;3.75;;
71566;SDS011;59403;47.456;19.120;2024-02-21T07:03:33;10.85;;;3.97;;
71566;SDS011;59403;47.456;19.120;2024-02-21T07:06:00;5.93;;;3.57;;
71566;SDS011;59403;47.456;19.120;2024-02-21T07:08:27;7.20;;;3.87;;
71566;SDS011;59403;47.456;19.120;2024-02-21T07:10:54;7.53;;;3.50;;
71566;SDS011;59403;47.456;19.120;2024-02-21T07:13:20;9.20;;;3.30;;
71566;SDS011;59403;47.456;19.120;2024-02-21T07:15:49;9.35;;;3.53;;
71566;SDS011;59403;47.456;19.120;2024-02-21T07:18:16;6.70;;;2.87;;
71566;SDS011;59403;47.456;19.120;2024-02-21T07:20:42;10.48;;;3.90;;
71566;SDS011;59403;47.456;19.120;2024-02-21T07:23:09;7.28;;;3.45;;
71566;SDS011;59403;47.456;19.120;2024-02-21T07:25:35;8.15;;;3.50;;
71566;SDS011;59403;47.456;19.120;2024-02-21T07:28:02;9.13;;;3.90;;
71566;SDS011;59403;47.456;19.120;2024-02-21T07:30:29;9.00;;;4.20;;
71566;SDS011;59403;47.456;19.120;2024-02-21T07:32:57;8.68;;;4.20;;
71566;SDS011;59403;47.456;19.120;2024-02-21T07:35:24;9.00;;;4.68;;
71566;SDS011;59403;47.456;19.120;2024-02-21T07:37:50;10.38;;;4.75;;
71566;SDS011;59403;47.456;19.120;2024-02-21T07:40:17;11.05;;;4.18;;
71566;SDS011;59403;47.456;19.120;2024-02-21T07:42:44;9.60;;;3.83;;
71566;SDS011;59403;47.456;19.120;2024-02-21T07:45:10;12.68;;;3.83;;
71566;SDS011;59403;47.456;19.120;2024-02-21T07:47:37;9.00;;;4.03;;
71566;SDS011;59403;47.456;19.120;2024-02-21T07:50:06;10.07;;;4.32;;
71566;SDS011;59403;47.456;19.120;2024-02-21T07:52:33;10.95;;;4.07;;
71566;SDS011;59403;47.456;19.120;2024-02-21T07:55:00;8.03;;;3.70;;
71566;SDS011;59403;47.456;19.120;2024-02-21T07:57:28;9.85;;;3.45;;
71566;SDS011;59403;47.456;19.120;2024-02-21T07:59:55;6.50;;;3.87;;
71566;SDS011;59403;47.456;19.120;2024-02-21T08:02:21;8.10;;;4.40;;
71566;SDS011;59403;47.456;19.120;2024-02-21T08:04:48;6.82;;;3.97;;
71566;SDS011;59403;47.456;19.120;2024-02-21T08:07:16;9.10;;;4.37;;
71566;SDS011;59403;47.456;19.120;2024-02-21T08:09:43;7.40;;;3.58;;
71566;SDS011;59403;47.456;19.120;2024-02-21T08:12:09;9.57;;;4.22;;
71566;SDS011;59403;47.456;19.120;2024-02-21T08:14:36;10.25;;;4.28;;
71566;SDS011;59403;47.456;19.120;2024-02-21T08:17:03;9.30;;;4.03;;
71566;SDS011;59403;47.456;19.120;2024-02-21T08:19:30;9.13;;;3.50;;
71566;SDS011;59403;47.456;19.120;2024-02-21T08:21:56;7.82;;;2.80;;
71566;SDS011;59403;47.456;19.120;2024-02-21T08:24:24;10.88;;;3.20;;
71566;SDS011;59403;47.456;19.120;2024-02-21T08:26:51;9.13;;;2.75;;
71566;SDS011;59403;47.456;19.120;2024-02-21T08:29:18;5.93;;;2.60;;
71566;SDS011;59403;47.456;19.120;2024-02-21T08:31:45;7.63;;;2.73;;
71566;SDS011;59403;47.456;19.120;2024-02-21T08:34:11;7.60;;;2.80;;
71566;SDS011;59403;47.456;19.120;2024-02-21T08:36:39;7.85;;;2.97;;
71566;SDS011;59403;47.456;19.120;2024-02-21T08:39:05;8.18;;;2.65;;
71566;SDS011;59403;47.456;19.120;2024-02-21T08:41:34;6.53;;;2.78;;
71566;SDS011;59403;47.456;19.120;2024-02-21T08:44:00;7.90;;;2.37;;
71566;SDS011;59403;47.456;19.120;2024-02-21T08:46:28;7.78;;;2.28;;
71566;SDS011;59403;47.456;19.120;2024-02-21T08:48:55;8.23;;;2.40;;
71566;SDS011;59403;47.456;19.120;2024-02-21T08:51:21;4.97;;;2.25;;
71566;SDS011;59403;47.456;19.120;2024-02-21T08:53:48;5.72;;;2.40;;
71566;SDS011;59403;47.456;19.120;2024-02-21T08:56:15;7.43;;;2.60;;
71566;SDS011;59403;47.456;19.120;2024-02-21T08:58:44;8.32;;;2.60;;
71566;SDS011;59403;47.456;19.120;2024-02-21T09:01:12;8.15;;;2.37;;
71566;SDS011;59403;47.456;19.120;2024-02-21T09:03:40;7.93;;;2.40;;
71566;SDS011;59403;47.456;19.120;2024-02-21T09:06:06;7.72;;;2.58;;
71566;SDS011;59403;47.456;19.120;2024-02-21T09:08:34;7.60;;;2.33;;
71566;SDS011;59403;47.456;19.120;2024-02-21T09:11:01;9.13;;;2.62;;
71566;SDS011;59403;47.456;19.120;2024-02-21T09:13:28;6.97;;;2.30;;
71566;SDS011;59403;47.456;19.120;2024-02-21T09:15:56;4.90;;;2.00;;
71566;SDS011;59403;47.456;19.120;2024-02-21T09:18:23;8.02;;;2.50;;
71566;SDS011;59403;47.456;19.120;2024-02-21T09:20:49;8.37;;;2.80;;
71566;SDS011;59403;47.456;19.120;2024-02-21T09:23:16;5.70;;;1.83;;
71566;SDS011;59403;47.456;19.120;2024-02-21T09:25:44;6.95;;;2.30;;
71566;SDS011;59403;47.456;19.120;2024-02-21T09:28:11;6.37;;;2.33;;
71566;SDS011;59403;47.456;19.120;2024-02-21T09:30:38;5.93;;;2.25;;
71566;SDS011;59403;47.456;19.120;2024-02-21T09:33:06;10.73;;;3.23;;
71566;SDS011;59403;47.456;19.120;2024-02-21T09:35:32;7.50;;;2.72;;
71566;SDS011;59403;47.456;19.120;2024-02-21T09:37:59;8.63;;;2.50;;
71566;SDS011;59403;47.456;19.120;2024-02-21T09:40:26;9.05;;;2.33;;
71566;SDS011;59403;47.456;19.120;2024-02-21T09:43:02;7.37;;;2.30;;
71566;SDS011;59403;47.456;19.120;2024-02-21T09:45:31;6.93;;;2.40;;
71566;SDS011;59403;47.456;19.120;2024-02-21T09:48:03;7.90;;;2.78;;
71566;SDS011;59403;47.456;19.120;2024-02-21T09:50:52;6.35;;;2.47;;
71566;SDS011;59403;47.456;19.120;2024-02-21T09:53:21;8.73;;;2.40;;
71566;SDS011;59403;47.456;19.120;2024-02-21T09:55:50;8.85;;;2.25;;
71566;SDS011;59403;47.456;19.120;2024-02-21T09:58:18;7.47;;;2.30;;
71566;SDS011;59403;47.456;19.120;2024-02-21T10:00:45;7.70;;;2.40;;
71566;SDS011;59403;47.456;19.120;2024-02-21T10:03:12;8.95;;;2.42;;
71566;SDS011;59403;47.456;19.120;2024-02-21T10:05:45;8.93;;;2.83;;
71566;SDS011;59403;47.456;19.120;2024-02-21T10:08:15;7.28;;;2.10;;
71566;SDS011;59403;47.456;19.120;2024-02-21T10:10:44;8.30;;;2.40;;
71566;SDS011;59403;47.456;19.120;2024-02-21T10:13:23;12.27;;;2.55;;
71566;SDS011;59403;47.456;19.120;2024-02-21T10:16:00;7.50;;;2.22;;
71566;SDS011;59403;47.456;19.120;2024-02-21T10:18:27;9.52;;;2.83;;
71566;SDS011;59403;47.456;19.120;2024-02-21T10:21:00;5.28;;;2.35;;
71566;SDS011;59403;47.456;19.120;2024-02-21T10:23:28;8.43;;;2.40;;
71566;SDS011;59403;47.456;19.120;2024-02-21T10:25:54;4.60;;;1.95;;
71566;SDS011;59403;47.456;19.120;2024-02-21T10:28:31;9.15;;;2.95;;
71566;SDS011;59403;47.456;19.120;2024-02-21T10:30:57;9.98;;;3.50;;
71566;SDS011;59403;47.456;19.120;2024-02-21T10:33:24;9.70;;;3.15;;
71566;SDS011;59403;47.456;19.120;2024-02-21T10:35:52;7.03;;;2.55;;
71566;SDS011;59403;47.456;19.120;2024-02-21T10:38:21;7.50;;;2.55;;
71566;SDS011;59403;47.456;19.120;2024-02-21T10:40:48;8.70;;;2.33;;
71566;SDS011;59403;47.456;19.120;2024-02-21T10:43:18;7.93;;;2.28;;
71566;SDS011;59403;47.456;19.120;2024-02-21T10:45:46;6.97;;;2.20;;
71566;SDS011;59403;47.456;19.120;2024-02-21T10:48:15;7.55;;;2.37;;
71566;SDS011;59403;47.456;19.120;2024-02-21T10:50:53;9.98;;;2.62;;
71566;SDS011;59403;47.456;19.120;2024-02-21T10:53:28;8.13;;;2.28;;
71566;SDS011;59403;47.456;19.120;2024-02-21T10:56:04;7.45;;;2.55;;
71566;SDS011;59403;47.456;19.120;2024-02-21T10:58:37;9.32;;;3.17;;
71566;SDS011;59403;47.456;19.120;2024-02-21T11:01:05;10.27;;;2.73;;
71566;SDS011;59403;47.456;19.120;2024-02-21T11:03:34;10.73;;;2.83;;
71566;SDS011;59403;47.456;19.120;2024-02-21T11:06:01;11.68;;;3.10;;
71566;SDS011;59403;47.456;19.120;2024-02-21T11:08:31;12.25;;;2.85;;
71566;SDS011;59403;47.456;19.120;2024-02-21T11:10:58;9.45;;;3.28;;
71566;SDS011;59403;47.456;19.120;2024-02-21T11:13:32;9.43;;;3.40;;
71566;SDS011;59403;47.456;19.120;2024-02-21T11:16:08;16.37;;;4.82;;
71566;SDS011;59403;47.456;19.120;2024-02-21T11:18:35;14.30;;;4.07;;
71566;SDS011;59403;47.456;19.120;2024-02-21T11:21:02;6.37;;;2.62;;
71566;SDS011;59403;47.456;19.120;2024-02-21T11:23:29;19.02;;;5.30;;
71566;SDS011;59403;47.456;19.120;2024-02-21T11:26:04;26.87;;;6.70;;
71566;SDS011;59403;47.456;19.120;2024-02-21T11:28:32;6.68;;;2.67;;
71566;SDS011;59403;47.456;19.120;2024-02-21T11:31:06;38.25;;;8.20;;
71566;SDS011;59403;47.456;19.120;2024-02-21T11:33:33;10.48;;;2.92;;
71566;SDS011;59403;47.456;19.120;2024-02-21T11:36:00;8.90;;;3.75;;
71566;SDS011;59403;47.456;19.120;2024-02-21T11:38:29;10.57;;;3.40;;
71566;SDS011;59403;47.456;19.120;2024-02-21T11:40:57;10.02;;;4.15;;
71566;SDS011;59403;47.456;19.120;2024-02-21T11:43:24;7.45;;;3.20;;
71566;SDS011;59403;47.456;19.120;2024-02-21T11:45:57;11.23;;;3.15;;
71566;SDS011;59403;47.456;19.120;2024-02-21T11:48:25;8.18;;;3.20;;
71566;SDS011;59403;47.456;19.120;2024-02-21T11:50:55;13.20;;;3.80;;
71566;SDS011;59403;47.456;19.120;2024-02-21T11:53:22;13.00;;;3.47;;
71566;SDS011;59403;47.456;19.120;2024-02-21T11:55:49;7.03;;;2.90;;
71566;SDS011;59403;47.456;19.120;2024-02-21T11:58:17;13.00;;;3.40;;
71566;SDS011;59403;47.456;19.120;2024-02-21T12:00:44;10.52;;;3.15;;
71566;SDS011;59403;47.456;19.120;2024-02-21T12:03:10;12.40;;;3.77;;
71566;SDS011;59403;47.456;19.120;2024-02-21T12:05:37;9.50;;;3.08;;
71566;SDS011;59403;47.456;19.120;2024-02-21T12:08:04;8.05;;;2.92;;
71566;SDS011;59403;47.456;19.120;2024-02-21T12:10:31;10.63;;;3.28;;
71566;SDS011;59403;47.456;19.120;2024-02-21T12:13:05;10.48;;;3.30;;
71566;SDS011;59403;47.456;19.120;2024-02-21T12:15:34;9.00;;;2.80;;
71566;SDS011;59403;47.456;19.120;2024-02-21T12:18:00;11.48;;;3.62;;
71566;SDS011;59403;47.456;19.120;2024-02-21T12:20:27;9.20;;;3.62;;
71566;SDS011;59403;47.456;19.120;2024-02-21T12:22:54;11.40;;;2.80;;
71566;SDS011;59403;47.456;19.120;2024-02-21T12:25:21;9.75;;;3.00;;
71566;SDS011;59403;47.456;19.120;2024-02-21T12:27:51;7.72;;;2.50;;
71566;SDS011;59403;47.456;19.120;2024-02-21T12:30:18;8.23;;;2.90;;
71566;SDS011;59403;47.456;19.120;2024-02-21T12:32:47;8.82;;;3.30;;
71566;SDS011;59403;47.456;19.120;2024-02-21T12:35:14;12.93;;;2.95;;
71566;SDS011;59403;47.456;19.120;2024-02-21T12:37:42;9.88;;;2.92;;
71566;SDS011;59403;47.456;19.120;2024-02-21T12:40:10;9.47;;;3.00;;
71566;SDS011;59403;47.456;19.120;2024-02-21T12:42:38;6.80;;;2.33;;
71566;SDS011;59403;47.456;19.120;2024-02-21T12:45:05;10.90;;;3.67;;
71566;SDS011;59403;47.456;19.120;2024-02-21T12:47:32;6.82;;;3.35;;
71566;SDS011;59403;47.456;19.120;2024-02-21T12:50:01;9.35;;;3.22;;
71566;SDS011;59403;47.456;19.120;2024-02-21T12:52:31;8.70;;;2.80;;
71566;SDS011;59403;47.456;19.120;2024-02-21T12:54:58;7.75;;;2.65;;
71566;SDS011;59403;47.456;19.120;2024-02-21T12:57:25;6.97;;;2.65;;
71566;SDS011;59403;47.456;19.120;2024-02-21T12:59:51;9.65;;;2.70;;
71566;SDS011;59403;47.456;19.120;2024-02-21T13:02:18;5.53;;;2.08;;
71566;SDS011;59403;47.456;19.120;2024-02-21T13:04:46;5.63;;;2.43;;
71566;SDS011;59403;47.456;19.120;2024-02-21T13:07:14;9.32;;;2.90;;
71566;SDS011;59403;47.456;19.120;2024-02-21T13:09:40;8.93;;;3.58;;
71566;SDS011;59403;47.456;19.120;2024-02-21T13:12:07;12.82;;;3.97;;
71566;SDS011;59403;47.456;19.120;2024-02-21T13:14:34;11.12;;;3.62;;
71566;SDS011;59403;47.456;19.120;2024-02-21T13:17:03;8.57;;;2.95;;
71566;SDS011;59403;47.456;19.120;2024-02-21T13:19:29;5.68;;;2.50;;
71566;SDS011;59403;47.456;19.120;2024-02-21T13:21:56;9.52;;;2.80;;
71566;SDS011;59403;47.456;19.120;2024-02-21T13:24:24;11.93;;;3.58;;
71566;SDS011;59403;47.456;19.120;2024-02-21T13:26:51;11.20;;;3.60;;
71566;SDS011;59403;47.456;19.120;2024-02-21T13:29:17;12.17;;;5.40;;
71566;SDS011;59403;47.456;19.120;2024-02-21T13:31:45;9.45;;;3.65;;
71566;SDS011;59403;47.456;19.120;2024-02-21T13:34:12;9.45;;;3.37;;
71566;SDS011;59403;47.456;19.120;2024-02-21T13:36:38;12.30;;;3.58;;
71566;SDS011;59403;47.456;19.120;2024-02-21T13:39:05;8.57;;;3.28;;
71566;SDS011;59403;47.456;19.120;2024-02-21T13:41:34;6.50;;;2.57;;
71566;SDS011;59403;47.456;19.120;2024-02-21T13:44:01;7.35;;;2.45;;
71566;SDS011;59403;47.456;19.120;2024-02-21T13:46:28;5.93;;;2.28;;
71566;SDS011;59403;47.456;19.120;2024-02-21T13:49:02;6.90;;;2.10;;
71566;SDS011;59403;47.456;19.120;2024-02-21T13:51:31;6.78;;;2.20;;
71566;SDS011;59403;47.456;19.120;2024-02-21T13:53:58;7.97;;;2.03;;
71566;SDS011;59403;47.456;19.120;2024-02-21T13:56:24;9.20;;;2.33;;
71566;SDS011;59403;47.456;19.120;2024-02-21T13:58:53;9.85;;;3.80;;
71566;SDS011;59403;47.456;19.120;2024-02-21T14:01:19;14.87;;;4.12;;
71566;SDS011;59403;47.456;19.120;2024-02-21T14:03:46;8.02;;;3.83;;
71566;SDS011;59403;47.456;19.120;2024-02-21T14:06:13;11.63;;;4.30;;
71566;SDS011;59403;47.456;19.120;2024-02-21T14:08:39;7.93;;;3.40;;
71566;SDS011;59403;47.456;19.120;2024-02-21T14:11:06;8.73;;;3.75;;
71566;SDS011;59403;47.456;19.120;2024-02-21T14:13:33;10.13;;;4.47;;
71566;SDS011;59403;47.456;19.120;2024-02-21T14:16:01;8.40;;;2.92;;
71566;SDS011;59403;47.456;19.120;2024-02-21T14:18:28;8.33;;;2.40;;
71566;SDS011;59403;47.456;19.120;2024-02-21T14:20:54;5.85;;;1.80;;
71566;SDS011;59403;47.456;19.120;2024-02-21T14:23:21;7.85;;;2.08;;
71566;SDS011;59403;47.456;19.120;2024-02-21T14:25:50;9.85;;;2.80;;
71566;SDS011;59403;47.456;19.120;2024-02-21T14:28:17;9.35;;;3.92;;
71566;SDS011;59403;47.456;19.120;2024-02-21T14:30:44;8.63;;;2.80;;
71566;SDS011;59403;47.456;19.120;2024-02-21T14:33:13;7.00;;;2.83;;
71566;SDS011;59403;47.456;19.120;2024-02-21T14:35:40;9.93;;;2.03;;
71566;SDS011;59403;47.456;19.120;2024-02-21T14:38:07;5.35;;;2.17;;